sensor_id;sensor_type;location;lat;lon;timestamp;pressure;altitude;pressure_sealevel;temperature;humidity
13836;BME280;6988;52.614;13.500;2022-12-18T00:03:23;55101.34;;;-143.77;87.08
13836;BME280;6988;52.614;13.500;2022-12-18T00:08:15;55056.19;;;-143.77;87.08
13836;BME280;6988;52.614;13.500;2022-12-18T00:13:07;55093.13;;;-143.77;87.36
13836;BME280;6988;52.614;13.500;2022-12-18T00:17:59;55058.25;;;-143.77;86.86
13836;BME280;6988;52.614;13.500;2022-12-18T00:22:52;55074.66;;;-143.77;86.97
13836;BME280;6988;52.614;13.500;2022-12-18T00:27:44;55076.72;;;-143.77;86.71
13836;BME280;6988;52.614;13.500;2022-12-18T00:32:38;55058.25;;;-143.77;86.21
13836;BME280;6988;52.614;13.500;2022-12-18T00:37:30;55074.66;;;-143.77;85.99
13836;BME280;6988;52.614;13.500;2022-12-18T00:42:23;55076.72;;;-143.77;86.16
13836;BME280;6988;52.614;13.500;2022-12-18T00:47:32;55095.19;;;-143.77;86.21
13836;BME280;6988;52.614;13.500;2022-12-18T00:52:24;55105.44;;;-143.77;85.84
13836;BME280;6988;52.614;13.500;2022-12-18T00:57:17;55080.81;;;-143.77;86.18
13836;BME280;6988;52.614;13.500;2022-12-18T01:02:13;55060.28;;;-143.77;85.83
13836;BME280;6988;52.614;13.500;2022-12-18T01:07:05;55064.41;;;-143.77;85.44
13836;BME280;6988;52.614;13.500;2022-12-18T01:11:58;55107.50;;;-143.77;85.45
13836;BME280;6988;52.614;13.500;2022-12-18T01:16:51;55078.75;;;-143.77;85.23
13836;BME280;6988;52.614;13.500;2022-12-18T01:21:44;55101.34;;;-143.77;85.32
13836;BME280;6988;52.614;13.500;2022-12-18T01:26:37;55111.59;;;-143.77;85.29
13836;BME280;6988;52.614;13.500;2022-12-18T01:31:32;55115.69;;;-143.77;84.75
13836;BME280;6988;52.614;13.500;2022-12-18T01:36:30;55107.50;;;-143.77;85.10
13836;BME280;6988;52.614;13.500;2022-12-18T01:41:28;55101.34;;;-143.77;84.42
13836;BME280;6988;52.614;13.500;2022-12-18T01:46:40;55105.44;;;-143.77;84.16
13836;BME280;6988;52.614;13.500;2022-12-18T01:51:32;55082.88;;;-143.77;85.16
13836;BME280;6988;52.614;13.500;2022-12-18T01:56:26;55111.59;;;-143.77;85.77
13836;BME280;6988;52.614;13.500;2022-12-18T02:01:20;55095.19;;;-143.77;85.71
13836;BME280;6988;52.614;13.500;2022-12-18T02:06:18;55123.91;;;-143.77;85.95
13836;BME280;6988;52.614;13.500;2022-12-18T02:11:26;55101.34;;;-143.77;85.77
13836;BME280;6988;52.614;13.500;2022-12-18T02:16:30;55099.28;;;-143.77;85.48
13836;BME280;6988;52.614;13.500;2022-12-18T02:21:35;55115.69;;;-143.77;85.12
13836;BME280;6988;52.614;13.500;2022-12-18T02:26:36;55140.31;;;-143.77;85.59
13836;BME280;6988;52.614;13.500;2022-12-18T02:31:36;55125.97;;;-143.77;85.16
13836;BME280;6988;52.614;13.500;2022-12-18T02:36:31;55107.50;;;-143.77;85.31
13836;BME280;6988;52.614;13.500;2022-12-18T02:41:26;55123.91;;;-143.77;85.12
13836;BME280;6988;52.614;13.500;2022-12-18T02:46:40;55148.53;;;-143.77;85.19
13836;BME280;6988;52.614;13.500;2022-12-18T02:51:49;55132.13;;;-143.77;85.25
13836;BME280;6988;52.614;13.500;2022-12-18T02:56:49;55132.13;;;-143.77;85.12
13836;BME280;6988;52.614;13.500;2022-12-18T03:01:54;55140.31;;;-143.77;85.15
13836;BME280;6988;52.614;13.500;2022-12-18T03:06:53;55134.16;;;-143.77;84.96
13836;BME280;6988;52.614;13.500;2022-12-18T03:11:53;55107.50;;;-143.77;85.25
13836;BME280;6988;52.614;13.500;2022-12-18T03:17:13;55115.69;;;-143.77;85.28
13836;BME280;6988;52.614;13.500;2022-12-18T03:22:08;55148.53;;;-143.77;85.32
13836;BME280;6988;52.614;13.500;2022-12-18T03:27:14;55086.97;;;-143.77;85.33
13836;BME280;6988;52.614;13.500;2022-12-18T03:32:16;55101.34;;;-143.77;85.40
13836;BME280;6988;52.614;13.500;2022-12-18T03:37:11;55113.66;;;-143.77;85.10
13836;BME280;6988;52.614;13.500;2022-12-18T03:42:10;55103.38;;;-143.77;84.50
13836;BME280;6988;52.614;13.500;2022-12-18T03:47:19;55115.69;;;-143.77;84.20
13836;BME280;6988;52.614;13.500;2022-12-18T03:52:21;55130.06;;;-143.77;84.09
13836;BME280;6988;52.614;13.500;2022-12-18T03:57:20;55107.50;;;-143.77;84.22
13836;BME280;6988;52.614;13.500;2022-12-18T04:02:18;55132.13;;;-143.77;85.18
13836;BME280;6988;52.614;13.500;2022-12-18T04:07:13;55123.91;;;-143.77;85.22
13836;BME280;6988;52.614;13.500;2022-12-18T04:12:08;55101.34;;;-143.77;85.03
13836;BME280;6988;52.614;13.500;2022-12-18T04:17:01;55113.66;;;-143.77;85.60
13836;BME280;6988;52.614;13.500;2022-12-18T04:21:57;55136.22;;;-143.77;85.81
13836;BME280;6988;52.614;13.500;2022-12-18T04:26:50;55115.69;;;-143.77;85.49
13836;BME280;6988;52.614;13.500;2022-12-18T04:31:47;55144.44;;;-143.77;85.71
13836;BME280;6988;52.614;13.500;2022-12-18T04:36:40;55140.31;;;-143.77;85.37
13836;BME280;6988;52.614;13.500;2022-12-18T04:41:34;55154.69;;;-143.77;85.68
13836;BME280;6988;52.614;13.500;2022-12-18T04:46:26;55156.75;;;-143.77;85.68
13836;BME280;6988;52.614;13.500;2022-12-18T04:51:18;55140.31;;;-143.77;85.57
13836;BME280;6988;52.614;13.500;2022-12-18T04:56:12;55111.59;;;-143.77;85.33
13836;BME280;6988;52.614;13.500;2022-12-18T05:01:07;55134.16;;;-143.77;85.04
13836;BME280;6988;52.614;13.500;2022-12-18T05:05:58;55134.16;;;-143.77;85.32
13836;BME280;6988;52.614;13.500;2022-12-18T05:10:58;55154.69;;;-143.77;85.60
13836;BME280;6988;52.614;13.500;2022-12-18T05:15:52;55103.38;;;-143.77;85.38
13836;BME280;6988;52.614;13.500;2022-12-18T05:20:45;55134.16;;;-143.77;85.76
13836;BME280;6988;52.614;13.500;2022-12-18T05:25:37;55125.97;;;-143.77;85.68
13836;BME280;6988;52.614;13.500;2022-12-18T05:30:29;55113.66;;;-143.77;85.33
13836;BME280;6988;52.614;13.500;2022-12-18T05:35:21;55119.81;;;-143.77;85.38
13836;BME280;6988;52.614;13.500;2022-12-18T05:40:14;55086.97;;;-143.77;85.27
13836;BME280;6988;52.614;13.500;2022-12-18T05:45:08;55125.97;;;-143.77;85.40
13836;BME280;6988;52.614;13.500;2022-12-18T05:50:00;55107.50;;;-143.77;84.83
13836;BME280;6988;52.614;13.500;2022-12-18T05:54:52;55140.31;;;-143.77;85.00
13836;BME280;6988;52.614;13.500;2022-12-18T05:59:45;55162.91;;;-143.77;84.91
13836;BME280;6988;52.614;13.500;2022-12-18T06:04:37;55121.84;;;-143.77;85.48
13836;BME280;6988;52.614;13.500;2022-12-18T06:09:29;55132.13;;;-143.77;85.43
13836;BME280;6988;52.614;13.500;2022-12-18T06:14:21;55140.31;;;-143.77;85.88
13836;BME280;6988;52.614;13.500;2022-12-18T06:19:16;55140.31;;;-143.77;86.14
13836;BME280;6988;52.614;13.500;2022-12-18T06:24:08;55123.91;;;-143.77;86.28
13836;BME280;6988;52.614;13.500;2022-12-18T06:29:00;55150.59;;;-143.77;86.57
13836;BME280;6988;52.614;13.500;2022-12-18T06:33:52;55132.13;;;-143.77;86.29
13836;BME280;6988;52.614;13.500;2022-12-18T06:38:45;55119.81;;;-143.77;86.40
13836;BME280;6988;52.614;13.500;2022-12-18T06:43:37;55154.69;;;-143.77;86.77
13836;BME280;6988;52.614;13.500;2022-12-18T06:48:29;55123.91;;;-143.77;86.50
13836;BME280;6988;52.614;13.500;2022-12-18T06:53:21;55140.31;;;-143.77;86.37
13836;BME280;6988;52.614;13.500;2022-12-18T06:58:15;55132.13;;;-143.77;87.04
13836;BME280;6988;52.614;13.500;2022-12-18T07:03:07;55101.34;;;-143.77;86.99
13836;BME280;6988;52.614;13.500;2022-12-18T07:07:59;55148.53;;;-143.77;87.08
13836;BME280;6988;52.614;13.500;2022-12-18T07:12:51;55148.53;;;-143.77;87.51
13836;BME280;6988;52.614;13.500;2022-12-18T07:17:44;55111.59;;;-143.77;88.49
13836;BME280;6988;52.614;13.500;2022-12-18T07:22:36;55115.69;;;-143.77;88.84
13836;BME280;6988;52.614;13.500;2022-12-18T07:27:28;55144.44;;;-143.77;88.23
13836;BME280;6988;52.614;13.500;2022-12-18T07:32:20;55160.84;;;-143.77;87.97
13836;BME280;6988;52.614;13.500;2022-12-18T07:37:13;55146.47;;;-143.77;87.58
13836;BME280;6988;52.614;13.500;2022-12-18T07:42:07;55142.38;;;-143.77;87.65
13836;BME280;6988;52.614;13.500;2022-12-18T07:47:29;55099.28;;;-143.77;87.47
13836;BME280;6988;52.614;13.500;2022-12-18T07:52:25;55128.00;;;-143.77;87.54
13836;BME280;6988;52.614;13.500;2022-12-18T07:57:17;55101.34;;;-143.77;87.80
13836;BME280;6988;52.614;13.500;2022-12-18T08:02:09;55091.06;;;-143.77;87.82
13836;BME280;6988;52.614;13.500;2022-12-18T08:07:01;55128.00;;;-143.77;87.43
13836;BME280;6988;52.614;13.500;2022-12-18T08:11:54;55091.06;;;-143.77;87.41
13836;BME280;6988;52.614;13.500;2022-12-18T08:16:46;55164.94;;;-143.77;87.03
13836;BME280;6988;52.614;13.500;2022-12-18T08:21:40;55068.50;;;-143.77;87.00
13836;BME280;6988;52.614;13.500;2022-12-18T08:26:32;55134.16;;;-143.77;86.82
13836;BME280;6988;52.614;13.500;2022-12-18T08:31:28;55109.53;;;-143.77;87.14
13836;BME280;6988;52.614;13.500;2022-12-18T08:36:21;55119.81;;;-143.77;86.92
13836;BME280;6988;52.614;13.500;2022-12-18T08:41:16;55107.50;;;-143.77;86.94
13836;BME280;6988;52.614;13.500;2022-12-18T08:46:08;55146.47;;;-143.77;87.00
13836;BME280;6988;52.614;13.500;2022-12-18T08:51:01;55117.75;;;-143.77;87.18
13836;BME280;6988;52.614;13.500;2022-12-18T08:55:55;55121.84;;;-143.77;87.03
13836;BME280;6988;52.614;13.500;2022-12-18T09:00:47;55107.50;;;-143.77;86.75
13836;BME280;6988;52.614;13.500;2022-12-18T09:05:40;55095.19;;;-143.77;86.53
13836;BME280;6988;52.614;13.500;2022-12-18T09:10:34;55097.22;;;-143.77;86.27
13836;BME280;6988;52.614;13.500;2022-12-18T09:15:26;55101.34;;;-143.77;86.38
13836;BME280;6988;52.614;13.500;2022-12-18T09:20:18;55099.28;;;-143.77;86.56
13836;BME280;6988;52.614;13.500;2022-12-18T09:25:10;55097.22;;;-143.77;86.39
13836;BME280;6988;52.614;13.500;2022-12-18T09:30:05;55097.22;;;-143.77;86.35
13836;BME280;6988;52.614;13.500;2022-12-18T09:34:57;55095.19;;;-143.77;86.56
13836;BME280;6988;52.614;13.500;2022-12-18T09:39:49;55099.28;;;-143.77;86.63
13836;BME280;6988;52.614;13.500;2022-12-18T09:44:44;55115.69;;;-143.77;86.45
13836;BME280;6988;52.614;13.500;2022-12-18T09:49:44;55107.50;;;-143.77;86.84
13836;BME280;6988;52.614;13.500;2022-12-18T09:54:40;55074.66;;;-143.77;87.25
13836;BME280;6988;52.614;13.500;2022-12-18T09:59:38;55066.44;;;-143.77;87.58
13836;BME280;6988;52.614;13.500;2022-12-18T10:04:32;55103.38;;;-143.77;88.00
13836;BME280;6988;52.614;13.500;2022-12-18T10:09:33;55091.06;;;-143.77;88.36
13836;BME280;6988;52.614;13.500;2022-12-18T10:14:35;55095.19;;;-143.77;88.31
13836;BME280;6988;52.614;13.500;2022-12-18T10:19:43;55068.50;;;-143.77;88.47
13836;BME280;6988;52.614;13.500;2022-12-18T10:24:50;55072.59;;;-143.77;88.31
13836;BME280;6988;52.614;13.500;2022-12-18T10:29:46;55080.81;;;-143.77;88.80
13836;BME280;6988;52.614;13.500;2022-12-18T10:34:38;55066.44;;;-143.77;89.14
13836;BME280;6988;52.614;13.500;2022-12-18T10:39:30;55064.41;;;-143.77;88.79
13836;BME280;6988;52.614;13.500;2022-12-18T10:44:26;55054.13;;;-143.77;88.40
13836;BME280;6988;52.614;13.500;2022-12-18T10:49:22;55056.19;;;-143.77;88.68
13836;BME280;6988;52.614;13.500;2022-12-18T10:54:18;55033.59;;;-143.77;88.14
13836;BME280;6988;52.614;13.500;2022-12-18T10:59:13;55054.13;;;-143.77;88.20
13836;BME280;6988;52.614;13.500;2022-12-18T11:04:09;55070.56;;;-143.77;87.84
13836;BME280;6988;52.614;13.500;2022-12-18T11:09:04;55068.50;;;-143.77;87.69
13836;BME280;6988;52.614;13.500;2022-12-18T11:14:02;55037.72;;;-143.77;87.51
13836;BME280;6988;52.614;13.500;2022-12-18T11:19:12;55070.56;;;-143.77;87.39
13836;BME280;6988;52.614;13.500;2022-12-18T11:24:20;55017.19;;;-143.77;87.79
13836;BME280;6988;52.614;13.500;2022-12-18T11:29:20;55074.66;;;-143.77;87.87
13836;BME280;6988;52.614;13.500;2022-12-18T11:34:22;55041.81;;;-143.77;87.23
13836;BME280;6988;52.614;13.500;2022-12-18T11:39:27;55058.25;;;-143.77;87.26
13836;BME280;6988;52.614;13.500;2022-12-18T11:44:26;55060.28;;;-143.77;87.03
13836;BME280;6988;52.614;13.500;2022-12-18T11:49:25;55066.44;;;-143.77;86.82
13836;BME280;6988;52.614;13.500;2022-12-18T11:54:20;55074.66;;;-143.77;86.75
13836;BME280;6988;52.614;13.500;2022-12-18T11:59:28;55050.03;;;-143.77;86.40
13836;BME280;6988;52.614;13.500;2022-12-18T12:04:46;55062.34;;;-143.77;86.79
13836;BME280;6988;52.614;13.500;2022-12-18T12:09:54;55047.97;;;-143.77;87.43
13836;BME280;6988;52.614;13.500;2022-12-18T12:14:59;55109.53;;;-143.77;87.84
13836;BME280;6988;52.614;13.500;2022-12-18T12:20:04;55043.88;;;-143.77;87.50
13836;BME280;6988;52.614;13.500;2022-12-18T12:25:17;55082.88;;;-143.77;87.82
13836;BME280;6988;52.614;13.500;2022-12-18T12:30:19;55082.88;;;-143.77;87.47
13836;BME280;6988;52.614;13.500;2022-12-18T12:35:27;55076.72;;;-143.77;87.25
13836;BME280;6988;52.614;13.500;2022-12-18T12:40:27;55103.38;;;-143.77;87.37
13836;BME280;6988;52.614;13.500;2022-12-18T12:45:30;55078.75;;;-143.77;86.91
13836;BME280;6988;52.614;13.500;2022-12-18T12:50:26;55066.44;;;-143.77;87.03
13836;BME280;6988;52.614;13.500;2022-12-18T12:55:25;55095.19;;;-143.77;86.67
13836;BME280;6988;52.614;13.500;2022-12-18T13:00:19;55091.06;;;-143.77;86.77
13836;BME280;6988;52.614;13.500;2022-12-18T13:05:23;55058.25;;;-143.77;86.50
13836;BME280;6988;52.614;13.500;2022-12-18T13:10:39;55062.34;;;-143.77;86.47
13836;BME280;6988;52.614;13.500;2022-12-18T13:15:37;55066.44;;;-143.77;86.36
13836;BME280;6988;52.614;13.500;2022-12-18T13:20:34;55078.75;;;-143.77;85.70
13836;BME280;6988;52.614;13.500;2022-12-18T13:25:35;55050.03;;;-143.77;85.34
13836;BME280;6988;52.614;13.500;2022-12-18T13:30:45;55082.88;;;-143.77;85.52
13836;BME280;6988;52.614;13.500;2022-12-18T13:35:39;55058.25;;;-143.77;85.95
13836;BME280;6988;52.614;13.500;2022-12-18T13:40:58;55078.75;;;-143.77;86.47
13836;BME280;6988;52.614;13.500;2022-12-18T13:46:05;55086.97;;;-143.77;86.59
13836;BME280;6988;52.614;13.500;2022-12-18T13:51:01;55086.97;;;-143.77;86.21
13836;BME280;6988;52.614;13.500;2022-12-18T13:55:54;55066.44;;;-143.77;86.25
13836;BME280;6988;52.614;13.500;2022-12-18T14:00:48;55056.19;;;-143.77;85.74
13836;BME280;6988;52.614;13.500;2022-12-18T14:05:44;55078.75;;;-143.77;85.83
13836;BME280;6988;52.614;13.500;2022-12-18T14:10:40;55091.06;;;-143.77;85.93
13836;BME280;6988;52.614;13.500;2022-12-18T14:15:35;55023.34;;;-143.77;85.69
13836;BME280;6988;52.614;13.500;2022-12-18T14:20:34;55074.66;;;-143.77;85.50
13836;BME280;6988;52.614;13.500;2022-12-18T14:25:28;55091.06;;;-143.77;86.01
13836;BME280;6988;52.614;13.500;2022-12-18T14:30:27;55052.09;;;-143.77;85.98
13836;BME280;6988;52.614;13.500;2022-12-18T14:35:20;55107.50;;;-143.77;86.01
13836;BME280;6988;52.614;13.500;2022-12-18T14:40:14;55080.81;;;-143.77;86.23
13836;BME280;6988;52.614;13.500;2022-12-18T14:45:37;55066.44;;;-143.77;86.26
13836;BME280;6988;52.614;13.500;2022-12-18T14:50:31;55105.44;;;-143.77;86.48
13836;BME280;6988;52.614;13.500;2022-12-18T14:55:25;55072.59;;;-143.77;86.58
13836;BME280;6988;52.614;13.500;2022-12-18T15:00:21;55084.91;;;-143.77;86.82
13836;BME280;6988;52.614;13.500;2022-12-18T15:05:20;55136.22;;;-143.77;86.83
13836;BME280;6988;52.614;13.500;2022-12-18T15:10:18;55078.75;;;-143.77;86.59
13836;BME280;6988;52.614;13.500;2022-12-18T15:15:47;55084.91;;;-143.77;87.02
13836;BME280;6988;52.614;13.500;2022-12-18T15:20:44;55101.34;;;-143.77;87.32
13836;BME280;6988;52.614;13.500;2022-12-18T15:25:37;55066.44;;;-143.77;87.98
13836;BME280;6988;52.614;13.500;2022-12-18T15:30:29;55086.97;;;-143.77;87.59
13836;BME280;6988;52.614;13.500;2022-12-18T15:35:24;55068.50;;;-143.77;87.27
13836;BME280;6988;52.614;13.500;2022-12-18T15:40:19;55070.56;;;-143.77;86.84
13836;BME280;6988;52.614;13.500;2022-12-18T15:45:12;55082.88;;;-143.77;86.10
13836;BME280;6988;52.614;13.500;2022-12-18T15:50:05;55074.66;;;-143.77;86.01
13836;BME280;6988;52.614;13.500;2022-12-18T15:54:58;55062.34;;;-143.77;85.95
13836;BME280;6988;52.614;13.500;2022-12-18T16:00:12;55125.97;;;-143.77;86.07
13836;BME280;6988;52.614;13.500;2022-12-18T16:05:15;55107.50;;;-143.77;86.24
13836;BME280;6988;52.614;13.500;2022-12-18T16:10:10;55107.50;;;-143.77;86.71
13836;BME280;6988;52.614;13.500;2022-12-18T16:15:03;55089.03;;;-143.77;86.79
13836;BME280;6988;52.614;13.500;2022-12-18T16:19:56;55074.66;;;-143.77;86.08
13836;BME280;6988;52.614;13.500;2022-12-18T16:24:48;55091.06;;;-143.77;86.72
13836;BME280;6988;52.614;13.500;2022-12-18T16:29:41;55078.75;;;-143.77;86.58
13836;BME280;6988;52.614;13.500;2022-12-18T16:34:34;55115.69;;;-143.77;86.23
13836;BME280;6988;52.614;13.500;2022-12-18T16:39:27;55080.81;;;-143.77;86.15
13836;BME280;6988;52.614;13.500;2022-12-18T16:44:19;55099.28;;;-143.77;86.32
13836;BME280;6988;52.614;13.500;2022-12-18T16:49:14;55076.72;;;-143.77;86.05
13836;BME280;6988;52.614;13.500;2022-12-18T16:54:06;55084.91;;;-143.77;86.25
13836;BME280;6988;52.614;13.500;2022-12-18T16:59:01;55109.53;;;-143.77;86.14
13836;BME280;6988;52.614;13.500;2022-12-18T17:03:56;55060.28;;;-143.77;85.83
13836;BME280;6988;52.614;13.500;2022-12-18T17:08:54;55070.56;;;-143.77;85.34
13836;BME280;6988;52.614;13.500;2022-12-18T17:13:46;55080.81;;;-143.77;85.09
13836;BME280;6988;52.614;13.500;2022-12-18T17:18:38;55089.03;;;-143.77;84.09
13836;BME280;6988;52.614;13.500;2022-12-18T17:23:30;55070.56;;;-143.77;83.88
13836;BME280;6988;52.614;13.500;2022-12-18T17:28:24;55080.81;;;-143.77;83.95
13836;BME280;6988;52.614;13.500;2022-12-18T17:33:18;55119.81;;;-143.77;83.87
13836;BME280;6988;52.614;13.500;2022-12-18T17:38:10;55082.88;;;-143.77;84.04
13836;BME280;6988;52.614;13.500;2022-12-18T17:43:02;55097.22;;;-143.77;84.26
13836;BME280;6988;52.614;13.500;2022-12-18T17:47:56;55099.28;;;-143.77;84.26
13836;BME280;6988;52.614;13.500;2022-12-18T17:52:48;55084.91;;;-143.77;84.07
13836;BME280;6988;52.614;13.500;2022-12-18T17:57:40;55082.88;;;-143.77;84.55
13836;BME280;6988;52.614;13.500;2022-12-18T18:02:34;55076.72;;;-143.77;84.05
13836;BME280;6988;52.614;13.500;2022-12-18T18:07:28;55078.75;;;-143.77;84.21
13836;BME280;6988;52.614;13.500;2022-12-18T18:12:20;55132.13;;;-143.77;84.66
13836;BME280;6988;52.614;13.500;2022-12-18T18:17:29;55123.91;;;-143.77;84.45
13836;BME280;6988;52.614;13.500;2022-12-18T18:22:21;55130.06;;;-143.77;84.77
13836;BME280;6988;52.614;13.500;2022-12-18T18:27:15;55080.81;;;-143.77;84.54
13836;BME280;6988;52.614;13.500;2022-12-18T18:32:07;55076.72;;;-143.77;83.97
13836;BME280;6988;52.614;13.500;2022-12-18T18:37:00;55107.50;;;-143.77;84.13
13836;BME280;6988;52.614;13.500;2022-12-18T18:41:52;55091.06;;;-143.77;84.53
13836;BME280;6988;52.614;13.500;2022-12-18T18:46:46;55105.44;;;-143.77;84.39
13836;BME280;6988;52.614;13.500;2022-12-18T18:51:38;55130.06;;;-143.77;84.46
13836;BME280;6988;52.614;13.500;2022-12-18T18:56:31;55130.06;;;-143.77;84.50
13836;BME280;6988;52.614;13.500;2022-12-18T19:01:24;55091.06;;;-143.77;84.81
13836;BME280;6988;52.614;13.500;2022-12-18T19:06:21;55136.22;;;-143.77;84.29
13836;BME280;6988;52.614;13.500;2022-12-18T19:11:15;55070.56;;;-143.77;84.15
13836;BME280;6988;52.614;13.500;2022-12-18T19:16:25;55095.19;;;-143.77;84.32
13836;BME280;6988;52.614;13.500;2022-12-18T19:21:23;55091.06;;;-143.77;84.34
13836;BME280;6988;52.614;13.500;2022-12-18T19:26:16;55138.28;;;-143.77;84.44
13836;BME280;6988;52.614;13.500;2022-12-18T19:31:11;55109.53;;;-143.77;84.49
13836;BME280;6988;52.614;13.500;2022-12-18T19:36:12;55138.28;;;-143.77;84.16
13836;BME280;6988;52.614;13.500;2022-12-18T19:41:07;55089.03;;;-143.77;84.59
13836;BME280;6988;52.614;13.500;2022-12-18T19:45:59;55107.50;;;-143.77;84.53
13836;BME280;6988;52.614;13.500;2022-12-18T19:50:51;55117.75;;;-143.77;84.90
13836;BME280;6988;52.614;13.500;2022-12-18T19:55:44;55080.81;;;-143.77;84.79
13836;BME280;6988;52.614;13.500;2022-12-18T20:00:37;55107.50;;;-143.77;84.38
13836;BME280;6988;52.614;13.500;2022-12-18T20:05:29;55093.13;;;-143.77;84.21
13836;BME280;6988;52.614;13.500;2022-12-18T20:10:22;55078.75;;;-143.77;83.75
13836;BME280;6988;52.614;13.500;2022-12-18T20:15:14;55111.59;;;-143.77;83.63
13836;BME280;6988;52.614;13.500;2022-12-18T20:20:09;55140.31;;;-143.77;83.50
13836;BME280;6988;52.614;13.500;2022-12-18T20:25:01;55107.50;;;-143.77;83.09
13836;BME280;6988;52.614;13.500;2022-12-18T20:29:53;55107.50;;;-143.77;83.02
13836;BME280;6988;52.614;13.500;2022-12-18T20:34:45;55089.03;;;-143.77;83.39
13836;BME280;6988;52.614;13.500;2022-12-18T20:39:38;55117.75;;;-143.77;83.21
13836;BME280;6988;52.614;13.500;2022-12-18T20:44:31;55140.31;;;-143.77;83.72
13836;BME280;6988;52.614;13.500;2022-12-18T20:49:25;55130.06;;;-143.77;83.63
13836;BME280;6988;52.614;13.500;2022-12-18T20:54:17;55140.31;;;-143.77;83.28
13836;BME280;6988;52.614;13.500;2022-12-18T20:59:10;55123.91;;;-143.77;83.51
13836;BME280;6988;52.614;13.500;2022-12-18T21:04:03;55097.22;;;-143.77;83.36
13836;BME280;6988;52.614;13.500;2022-12-18T21:08:55;55099.28;;;-143.77;83.59
13836;BME280;6988;52.614;13.500;2022-12-18T21:13:46;55144.44;;;-143.77;83.80
13836;BME280;6988;52.614;13.500;2022-12-18T21:18:40;55123.91;;;-143.77;83.31
13836;BME280;6988;52.614;13.500;2022-12-18T21:23:32;55140.31;;;-143.77;83.69
13836;BME280;6988;52.614;13.500;2022-12-18T21:28:25;55134.16;;;-143.77;83.85
13836;BME280;6988;52.614;13.500;2022-12-18T21:33:17;55101.34;;;-143.77;83.78
13836;BME280;6988;52.614;13.500;2022-12-18T21:38:10;55086.97;;;-143.77;83.41
13836;BME280;6988;52.614;13.500;2022-12-18T21:43:03;55095.19;;;-143.77;83.21
13836;BME280;6988;52.614;13.500;2022-12-18T21:48:13;55091.06;;;-143.77;83.05
13836;BME280;6988;52.614;13.500;2022-12-18T21:53:05;55099.28;;;-143.77;82.49
13836;BME280;6988;52.614;13.500;2022-12-18T21:57:58;55132.13;;;-143.77;82.30
13836;BME280;6988;52.614;13.500;2022-12-18T22:02:50;55109.53;;;-143.77;81.79
13836;BME280;6988;52.614;13.500;2022-12-18T22:07:43;55115.69;;;-143.77;82.38
13836;BME280;6988;52.614;13.500;2022-12-18T22:12:35;55093.13;;;-143.77;82.41
13836;BME280;6988;52.614;13.500;2022-12-18T22:17:28;55111.59;;;-143.77;81.93
13836;BME280;6988;52.614;13.500;2022-12-18T22:22:21;55140.31;;;-143.77;81.88
13836;BME280;6988;52.614;13.500;2022-12-18T22:27:13;55107.50;;;-143.77;81.55
13836;BME280;6988;52.614;13.500;2022-12-18T22:32:07;55111.59;;;-143.77;81.60
13836;BME280;6988;52.614;13.500;2022-12-18T22:37:01;55119.81;;;-143.77;81.79
13836;BME280;6988;52.614;13.500;2022-12-18T22:41:53;55107.50;;;-143.77;81.50
13836;BME280;6988;52.614;13.500;2022-12-18T23:04:42;55115.69;;;-143.77;83.49
13836;BME280;6988;52.614;13.500;2022-12-18T23:09:34;55105.44;;;-143.77;83.42
13836;BME280;6988;52.614;13.500;2022-12-18T23:14:27;55107.50;;;-143.77;83.31
13836;BME280;6988;52.614;13.500;2022-12-18T23:19:20;55095.19;;;-143.77;82.67
13836;BME280;6988;52.614;13.500;2022-12-18T23:24:13;55103.38;;;-143.77;82.73
13836;BME280;6988;52.614;13.500;2022-12-18T23:29:06;55113.66;;;-143.77;82.71
13836;BME280;6988;52.614;13.500;2022-12-18T23:33:59;55132.13;;;-143.77;82.36
13836;BME280;6988;52.614;13.500;2022-12-18T23:38:54;55109.53;;;-143.77;82.32
13836;BME280;6988;52.614;13.500;2022-12-18T23:43:48;55099.28;;;-143.77;81.96
13836;BME280;6988;52.614;13.500;2022-12-18T23:48:40;55128.00;;;-143.77;82.11
13836;BME280;6988;52.614;13.500;2022-12-18T23:53:32;55097.22;;;-143.77;82.47
13836;BME280;6988;52.614;13.500;2022-12-18T23:58:24;55111.59;;;-143.77;82.68
